Time,TemperatureF,DewpointF,PressureIn,WindDirection,WindDirectionDegrees,WindSpeedMPH,WindSpeedGustMPH,Humidity,HourlyPrecipIn,Conditions,Clouds,dailyrainin,SoftwareType,DateUTC
2013-02-04 00:06:00,7.3,4.0,29.97,West,281,7.0,12.0,86,0.00,,,0.00,weatherlink.com 1.10,2013-02-04 05:06:00,
2013-02-04 00:21:00,7.0,4.0,29.98,NW,323,7.0,10.0,86,0.00,,,0.00,weatherlink.com 1.10,2013-02-04 05:21:00,
2013-02-04 00:36:00,7.0,4.0,29.98,NW,322,6.0,8.0,88,0.00,,,0.00,weatherlink.com 1.10,2013-02-04 05:36:00,
2013-02-04 00:52:00,7.2,2.0,29.98,NNW,335,9.0,11.0,80,0.00,,,0.00,weatherlink.com 1.10,2013-02-04 05:52:00,
2013-02-04 01:06:00,6.8,1.0,29.99,NW,325,6.0,9.0,78,0.00,,,0.00,weatherlink.com 1.10,2013-02-04 06:06:00,
2013-02-04 01:21:00,4.6,-1.0,29.99,NNW,332,8.0,9.0,79,0.00,,,0.00,weatherlink.com 1.10,2013-02-04 06:21:00,
2013-02-04 01:36:00,4.5,0.0,29.99,North,350,3.0,8.0,81,0.00,,,0.00,weatherlink.com 1.10,2013-02-04 06:36:00,
2013-02-04 01:51:00,3.6,-1.0,30.00,NNW,342,5.0,6.0,81,0.00,,,0.00,weatherlink.com 1.10,2013-02-04 06:51:00,
2013-02-04 02:06:00,4.9,0.0,30.01,NNW,331,6.0,9.0,80,0.00,,,0.00,weatherlink.com 1.10,2013-02-04 07:06:00,
2013-02-04 02:22:00,5.0,-1.0,30.01,NNW,334,3.0,8.0,77,0.00,,,0.00,weatherlink.com 1.10,2013-02-04 07:22:00,
2013-02-04 02:37:00,4.9,-1.0,30.02,NNW,346,6.0,8.0,76,0.00,,,0.00,weatherlink.com 1.10,2013-02-04 07:37:00,
2013-02-04 02:52:00,4.5,-2.0,30.02,NNE,19,6.0,8.0,75,0.00,,,0.00,weatherlink.com 1.10,2013-02-04 07:52:00,
2013-02-04 03:07:00,2.8,-3.0,30.02,NNW,338,4.0,7.0,76,0.00,,,0.00,weatherlink.com 1.10,2013-02-04 08:07:00,
2013-02-04 03:22:00,1.9,-4.0,30.02,North,355,5.0,6.0,77,0.00,,,0.00,weatherlink.com 1.10,2013-02-04 08:22:00,
2013-02-04 03:37:00,0.1,-6.0,30.03,North,355,6.0,6.0,77,0.00,,,0.00,weatherlink.com 1.10,2013-02-04 08:37:00,
2013-02-04 03:52:00,1.2,-3.0,30.02,North,9,6.0,7.0,81,0.00,,,0.00,weatherlink.com 1.10,2013-02-04 08:52:00,
2013-02-04 04:07:00,1.4,-3.0,30.03,North,351,4.0,8.0,80,0.00,,,0.00,weatherlink.com 1.10,2013-02-04 09:07:00,
2013-02-04 04:22:00,1.8,-3.0,30.03,North,355,6.0,7.0,80,0.00,,,0.00,weatherlink.com 1.10,2013-02-04 09:22:00,
2013-02-04 04:37:00,2.2,-3.0,30.03,NNW,337,3.0,8.0,78,0.00,,,0.00,weatherlink.com 1.10,2013-02-04 09:37:00,
2013-02-04 04:52:00,1.4,-4.0,30.03,NNW,347,5.0,7.0,77,0.00,,,0.00,weatherlink.com 1.10,2013-02-04 09:52:00,
2013-02-04 05:07:00,-0.3,-6.0,30.04,NNE,19,1.0,5.0,78,0.00,,,0.00,weatherlink.com 1.10,2013-02-04 10:07:00,
2013-02-04 05:22:00,-1.5,-6.0,30.04,North,9,3.0,4.0,80,0.00,,,0.00,weatherlink.com 1.10,2013-02-04 10:22:00,
2013-02-04 05:37:00,-1.6,-6.0,30.04,NNE,28,3.0,4.0,82,0.00,,,0.00,weatherlink.com 1.10,2013-02-04 10:37:00,
2013-02-04 05:53:00,-0.5,-4.0,30.04,NNE,17,3.0,5.0,84,0.00,,,0.00,weatherlink.com 1.10,2013-02-04 10:53:00,
2013-02-04 06:08:00,-0.6,-5.0,30.04,NE,44,4.0,5.0,82,0.00,,,0.00,weatherlink.com 1.10,2013-02-04 11:08:00,
2013-02-04 06:23:00,-1.0,-6.0,30.04,NE,34,1.0,5.0,81,0.00,,,0.00,weatherlink.com 1.10,2013-02-04 11:23:00,
2013-02-04 06:38:00,-1.6,-6.0,30.05,NNE,32,2.0,4.0,82,0.00,,,0.00,weatherlink.com 1.10,2013-02-04 11:38:00,
2013-02-04 06:53:00,-2.2,-6.0,30.05,NNE,26,0.0,2.0,82,0.00,,,0.00,weatherlink.com 1.10,2013-02-04 11:53:00,
2013-02-04 07:08:00,-2.2,-6.0,30.05,NE,37,0.0,2.0,84,0.00,,,0.00,weatherlink.com 1.10,2013-02-04 12:08:00,
2013-02-04 07:23:00,-2.2,-6.0,30.05,NE,36,0.0,2.0,84,0.00,,,0.00,weatherlink.com 1.10,2013-02-04 12:23:00,
2013-02-04 07:38:00,-2.8,-7.0,30.05,NE,36,0.0,1.0,84,0.00,,,0.00,weatherlink.com 1.10,2013-02-04 12:38:00,
2013-02-04 07:53:00,-3.8,-7.0,30.05,NE,36,0.0,1.0,84,0.00,,,0.00,weatherlink.com 1.10,2013-02-04 12:53:00,
2013-02-04 08:08:00,-4.4,-8.0,30.05,NE,36,0.0,1.0,84,0.00,,,0.00,weatherlink.com 1.10,2013-02-04 13:08:00,
2013-02-04 08:24:00,-4.7,-9.0,30.06,NE,36,0.0,1.0,83,0.00,,,0.00,weatherlink.com 1.10,2013-02-04 13:24:00,
2013-02-04 08:39:00,-4.6,-8.0,30.07,NE,36,0.0,0.0,84,0.00,,,0.00,weatherlink.com 1.10,2013-02-04 13:39:00,
2013-02-04 08:54:00,-2.4,-6.0,30.07,NE,53,1.0,2.0,85,0.00,,,0.00,weatherlink.com 1.10,2013-02-04 13:54:00,
2013-02-04 09:09:00,0.7,-4.0,30.07,ENE,64,1.0,2.0,82,0.00,,,0.00,weatherlink.com 1.10,2013-02-04 14:09:00,
2013-02-04 09:24:00,1.6,-4.0,30.07,ENE,62,1.0,2.0,78,0.00,,,0.00,weatherlink.com 1.10,2013-02-04 14:24:00,
2013-02-04 09:39:00,2.1,-4.0,30.07,NNE,23,3.0,3.0,77,0.00,,,0.00,weatherlink.com 1.10,2013-02-04 14:39:00,
2013-02-04 09:54:00,0.4,-5.0,30.07,NNW,343,2.0,3.0,77,0.00,,,0.00,weatherlink.com 1.10,2013-02-04 14:54:00,
2013-02-04 10:09:00,0.4,-5.0,30.07,NE,51,2.0,4.0,79,0.00,,,0.00,weatherlink.com 1.10,2013-02-04 15:09:00,
2013-02-04 10:24:00,2.4,-4.0,30.07,NE,55,3.0,5.0,76,0.00,,,0.00,weatherlink.com 1.10,2013-02-04 15:24:00,
2013-02-04 10:39:00,1.3,-4.0,30.07,ENE,67,3.0,8.0,77,0.00,,,0.00,weatherlink.com 1.10,2013-02-04 15:39:00,
2013-02-04 10:54:00,1.0,-5.0,30.07,ENE,62,5.0,7.0,76,0.00,,,0.00,weatherlink.com 1.10,2013-02-04 15:54:00,
2013-02-04 11:09:00,2.4,-4.0,30.07,NE,34,3.0,5.0,76,0.00,,,0.00,weatherlink.com 1.10,2013-02-04 16:09:00,
2013-02-04 11:24:00,3.5,-3.0,30.07,NE,46,2.0,4.0,74,0.00,,,0.00,weatherlink.com 1.10,2013-02-04 16:24:00,
2013-02-04 11:40:00,3.7,-3.0,30.07,ENE,59,3.0,5.0,73,0.00,,,0.00,weatherlink.com 1.10,2013-02-04 16:40:00,
2013-02-04 11:55:00,4.6,-2.0,30.06,NNE,26,3.0,4.0,73,0.00,,,0.00,weatherlink.com 1.10,2013-02-04 16:55:00,
2013-02-04 12:10:00,3.6,-3.0,30.06,NNE,16,2.0,5.0,74,0.00,,,0.00,weatherlink.com 1.10,2013-02-04 17:10:00,
2013-02-04 12:25:00,3.2,-3.0,30.05,NNE,12,3.0,5.0,76,0.00,,,0.00,weatherlink.com 1.10,2013-02-04 17:25:00,
2013-02-04 12:40:00,3.4,-3.0,30.05,NNE,17,3.0,5.0,76,0.00,,,0.00,weatherlink.com 1.10,2013-02-04 17:40:00,
2013-02-04 12:55:00,4.0,-2.0,30.05,NNW,335,3.0,4.0,75,0.00,,,0.00,weatherlink.com 1.10,2013-02-04 17:55:00,
2013-02-04 13:10:00,3.2,-3.0,30.04,NNW,331,2.0,4.0,74,0.00,,,0.00,weatherlink.com 1.10,2013-02-04 18:10:00,
2013-02-04 13:25:00,4.2,-2.0,30.04,North,355,4.0,5.0,74,0.00,,,0.00,weatherlink.com 1.10,2013-02-04 18:25:00,
2013-02-04 13:40:00,5.0,-2.0,30.03,North,5,3.0,5.0,73,0.00,,,0.00,weatherlink.com 1.10,2013-02-04 18:40:00,
2013-02-04 13:55:00,5.3,-3.0,30.03,NNW,346,3.0,5.0,70,0.00,,,0.00,weatherlink.com 1.10,2013-02-04 18:55:00,
2013-02-04 14:10:00,4.3,-3.0,30.02,North,355,3.0,5.0,71,0.00,,,0.00,weatherlink.com 1.10,2013-02-04 19:10:00,
2013-02-04 14:25:00,4.3,-3.0,30.02,NW,326,3.0,5.0,73,0.00,,,0.00,weatherlink.com 1.10,2013-02-04 19:25:00,
2013-02-04 14:41:00,4.6,-2.0,30.02,NW,323,3.0,4.0,73,0.00,,,0.00,weatherlink.com 1.10,2013-02-04 19:41:00,
2013-02-04 14:56:00,4.7,-3.0,30.02,NW,323,4.0,5.0,72,0.00,,,0.00,weatherlink.com 1.10,2013-02-04 19:56:00,
2013-02-04 15:10:00,5.0,-2.0,30.02,NW,322,4.0,4.0,72,0.00,,,0.00,weatherlink.com 1.10,2013-02-04 20:10:00,
2013-02-04 15:26:00,4.9,-2.0,30.02,NW,323,3.0,5.0,72,0.00,,,0.00,weatherlink.com 1.10,2013-02-04 20:26:00,
2013-02-04 15:41:00,5.2,-2.0,30.02,NW,316,3.0,4.0,71,0.00,,,0.00,weatherlink.com 1.10,2013-02-04 20:41:00,
2013-02-04 15:56:00,4.8,-2.0,30.02,NW,312,1.0,4.0,72,0.00,,,0.00,weatherlink.com 1.10,2013-02-04 20:56:00,
2013-02-04 16:11:00,5.5,-2.0,30.01,NW,311,2.0,3.0,71,0.00,,,0.00,weatherlink.com 1.10,2013-02-04 21:11:00,
2013-02-04 16:26:00,5.3,-2.0,30.01,NW,311,1.0,3.0,72,0.00,,,0.00,weatherlink.com 1.10,2013-02-04 21:26:00,
2013-02-04 16:41:00,5.6,-1.0,30.00,NW,311,1.0,2.0,73,0.00,,,0.00,weatherlink.com 1.10,2013-02-04 21:41:00,
2013-02-04 16:56:00,6.2,-1.0,30.00,NW,309,0.0,3.0,73,0.00,,,0.00,weatherlink.com 1.10,2013-02-04 21:56:00,
2013-02-04 17:11:00,5.4,-2.0,29.99,NW,309,1.0,2.0,73,0.00,,,0.00,weatherlink.com 1.10,2013-02-04 22:11:00,
2013-02-04 17:26:00,3.6,-2.0,29.99,NW,310,0.0,2.0,76,0.00,,,0.00,weatherlink.com 1.10,2013-02-04 22:26:00,
2013-02-04 17:41:00,3.2,-1.0,29.99,NW,310,0.0,2.0,81,0.00,,,0.00,weatherlink.com 1.10,2013-02-04 22:41:00,
2013-02-04 17:57:00,2.1,-2.0,29.98,NW,310,0.0,2.0,82,0.00,,,0.00,weatherlink.com 1.10,2013-02-04 22:57:00,
2013-02-04 18:12:00,1.1,-3.0,29.98,WNW,296,2.0,2.0,84,0.00,,,0.00,weatherlink.com 1.10,2013-02-04 23:12:00,
2013-02-04 18:27:00,0.4,-3.0,29.99,South,180,0.0,2.0,85,0.00,,,0.00,weatherlink.com 1.10,2013-02-04 23:27:00,
2013-02-04 18:42:00,-0.5,-4.0,29.98,South,178,1.0,1.0,84,0.00,,,0.00,weatherlink.com 1.10,2013-02-04 23:42:00,
2013-02-04 18:56:00,-1.3,-5.0,29.98,South,178,0.0,1.0,85,0.00,,,0.00,weatherlink.com 1.10,2013-02-04 23:56:00,
2013-02-04 19:11:00,-1.9,-5.0,29.98,South,178,1.0,2.0,85,0.00,,,0.00,weatherlink.com 1.10,2013-02-05 00:11:00,
2013-02-04 19:26:00,-0.8,-4.0,29.98,SSW,208,5.0,5.0,88,0.00,,,0.00,weatherlink.com 1.10,2013-02-05 00:26:00,
2013-02-04 19:41:00,0.5,-3.0,29.98,SSW,196,2.0,5.0,86,0.00,,,0.00,weatherlink.com 1.10,2013-02-05 00:41:00,
2013-02-04 19:56:00,1.4,-2.0,29.99,SSW,201,2.0,4.0,87,0.00,,,0.00,weatherlink.com 1.10,2013-02-05 00:56:00,
2013-02-04 20:11:00,6.4,3.0,29.99,SW,215,3.0,5.0,87,0.00,,,0.00,weatherlink.com 1.10,2013-02-05 01:11:00,
2013-02-04 20:26:00,8.5,4.0,30.00,WSW,241,2.0,5.0,81,0.00,,,0.00,weatherlink.com 1.10,2013-02-05 01:26:00,
2013-02-04 20:41:00,7.8,3.0,29.99,West,259,7.0,8.0,81,0.00,,,0.00,weatherlink.com 1.10,2013-02-05 01:41:00,
2013-02-04 20:56:00,8.8,4.0,30.00,West,265,5.0,9.0,81,0.00,,,0.00,weatherlink.com 1.10,2013-02-05 01:56:00,
2013-02-04 21:12:00,9.5,4.0,30.00,West,278,8.0,10.0,79,0.00,,,0.00,weatherlink.com 1.10,2013-02-05 02:12:00,
2013-02-04 21:27:00,9.6,4.0,30.00,West,270,6.0,9.0,78,0.00,,,0.00,weatherlink.com 1.10,2013-02-05 02:27:00,
2013-02-04 21:42:00,10.1,4.0,30.00,WNW,282,8.0,11.0,77,0.00,,,0.00,weatherlink.com 1.10,2013-02-05 02:42:00,
2013-02-04 21:57:00,10.0,4.0,29.99,WNW,290,5.0,13.0,75,0.00,,,0.00,weatherlink.com 1.10,2013-02-05 02:57:00,
2013-02-04 22:12:00,9.8,3.0,29.99,WSW,245,3.0,12.0,74,0.00,,,0.00,weatherlink.com 1.10,2013-02-05 03:12:00,
2013-02-04 22:27:00,9.1,2.0,29.99,SW,229,3.0,9.0,74,0.00,,,0.00,weatherlink.com 1.10,2013-02-05 03:27:00,
2013-02-04 22:42:00,8.5,2.0,29.99,SW,233,4.0,6.0,74,0.00,,,0.00,weatherlink.com 1.10,2013-02-05 03:42:00,
2013-02-04 22:57:00,8.3,2.0,29.99,West,259,3.0,7.0,74,0.00,,,0.00,weatherlink.com 1.10,2013-02-05 03:57:00,
2013-02-04 23:12:00,8.2,2.0,29.99,WSW,257,3.0,7.0,75,0.00,,,0.00,weatherlink.com 1.10,2013-02-05 04:12:00,
2013-02-04 23:27:00,7.9,2.0,29.98,WSW,248,3.0,7.0,75,0.00,,,0.00,weatherlink.com 1.10,2013-02-05 04:27:00,
2013-02-04 23:42:00,7.9,2.0,29.98,West,263,6.0,8.0,75,0.00,,,0.00,weatherlink.com 1.10,2013-02-05 04:42:00,
2013-02-04 23:57:00,8.0,2.0,29.98,WSW,242,5.0,7.0,76,0.00,,,0.00,weatherlink.com 1.10,2013-02-05 04:57:00,